TimeEST,TemperatureF,Dew PointF,Humidity,Sea Level PressureIn,VisibilityMPH,Wind Direction,Wind SpeedMPH,Gust SpeedMPH,PrecipitationIn,Events,Conditions,WindDirDegrees,DateUTC
12:15 AM,24.8,3.2,40,30.35,10.0,ESE,12.7,-,N/A,,Clear,110,2013-01-25 05:15:00
12:35 AM,24.8,3.2,40,30.35,10.0,ESE,9.2,-,N/A,,Clear,120,2013-01-25 05:35:00
12:55 AM,24.8,3.2,40,30.34,10.0,SE,11.5,-,N/A,,Scattered Clouds,130,2013-01-25 05:55:00
1:15 AM,24.8,3.2,40,30.33,10.0,ESE,10.4,-,N/A,,Overcast,110,2013-01-25 06:15:00
1:35 AM,24.8,3.2,40,30.32,10.0,East,12.7,-,N/A,,Overcast,100,2013-01-25 06:35:00
1:55 AM,24.8,3.2,40,30.30,10.0,East,11.5,-,N/A,,Overcast,100,2013-01-25 06:55:00
2:15 AM,24.8,3.2,40,30.31,10.0,ESE,9.2,-,N/A,,Overcast,120,2013-01-25 07:15:00
2:35 AM,24.8,3.2,40,30.29,10.0,ESE,10.4,-,N/A,,Overcast,120,2013-01-25 07:35:00
2:55 AM,24.8,3.2,40,30.27,10.0,ESE,11.5,-,N/A,,Overcast,110,2013-01-25 07:55:00
3:15 AM,24.8,3.2,40,30.27,10.0,East,11.5,-,N/A,,Overcast,100,2013-01-25 08:15:00
3:35 AM,24.8,3.2,40,30.27,10.0,ESE,6.9,-,N/A,,Overcast,110,2013-01-25 08:35:00
3:55 AM,24.8,6.8,46,30.26,10.0,East,8.1,-,N/A,,Overcast,80,2013-01-25 08:55:00
4:15 AM,24.8,8.6,50,30.23,10.0,East,8.1,-,N/A,,Overcast,90,2013-01-25 09:15:00
4:35 AM,24.8,6.8,46,30.22,10.0,East,10.4,-,N/A,,Overcast,90,2013-01-25 09:35:00
4:55 AM,24.8,6.8,46,30.21,10.0,ESE,9.2,-,N/A,,Overcast,110,2013-01-25 09:55:00
5:15 AM,24.8,6.8,46,30.20,10.0,ESE,9.2,-,N/A,,Overcast,110,2013-01-25 10:15:00
5:35 AM,24.8,8.6,50,30.17,10.0,ESE,13.8,-,N/A,,Overcast,120,2013-01-25 10:35:00
5:55 AM,23.0,12.2,63,30.16,10.0,ESE,9.2,-,N/A,,Overcast,110,2013-01-25 10:55:00
6:35 AM,23.0,12.2,63,30.17,10.0,East,8.1,-,N/A,,Overcast,100,2013-01-25 11:35:00
6:55 AM,23.0,12.2,63,30.17,10.0,East,5.8,-,N/A,,Overcast,80,2013-01-25 11:55:00
7:15 AM,23.0,14.0,68,30.14,10.0,ESE,10.4,-,N/A,,Overcast,120,2013-01-25 12:15:00
7:35 AM,23.0,15.8,74,30.16,10.0,ESE,6.9,-,N/A,,Overcast,110,2013-01-25 12:35:00
7:55 AM,23.0,15.8,74,30.16,10.0,East,5.8,-,N/A,,Overcast,90,2013-01-25 12:55:00
8:35 AM,21.2,17.6,86,30.15,5.0,East,5.8,-,N/A,,Overcast,100,2013-01-25 13:35:00
8:55 AM,21.2,17.6,86,30.15,3.0,ENE,3.5,-,N/A,,Overcast,60,2013-01-25 13:55:00
9:15 AM,23.0,19.4,86,30.13,4.0,SE,5.8,-,N/A,,Overcast,130,2013-01-25 14:15:00
9:35 AM,23.0,19.4,86,30.14,9.0,Calm,Calm,-,N/A,,Overcast,0,2013-01-25 14:35:00
9:55 AM,23.0,19.4,86,30.15,10.0,Calm,Calm,-,N/A,,Overcast,0,2013-01-25 14:55:00
10:15 AM,23.0,19.4,86,30.14,10.0,Calm,Calm,-,N/A,,Overcast,0,2013-01-25 15:15:00
10:35 AM,23.0,19.4,86,30.15,10.0,Calm,Calm,-,N/A,,Overcast,0,2013-01-25 15:35:00
10:55 AM,24.8,19.4,80,30.17,10.0,WNW,3.5,-,N/A,,Overcast,290,2013-01-25 15:55:00
11:15 AM,24.8,19.4,80,30.16,9.0,WNW,3.5,-,N/A,,Overcast,300,2013-01-25 16:15:00
11:35 AM,24.8,21.2,86,30.17,10.0,WNW,6.9,-,N/A,,Overcast,300,2013-01-25 16:35:00
11:55 AM,26.6,21.2,80,30.18,10.0,WNW,8.1,-,N/A,,Overcast,290,2013-01-25 16:55:00
12:15 PM,26.6,21.2,80,30.16,10.0,NW,8.1,-,N/A,,Overcast,310,2013-01-25 17:15:00
12:35 PM,28.4,21.2,74,30.15,10.0,NW,5.8,-,N/A,,Overcast,310,2013-01-25 17:35:00
12:55 PM,28.4,19.4,69,30.13,10.0,WNW,9.2,-,N/A,,Overcast,290,2013-01-25 17:55:00
1:15 PM,30.2,21.2,69,30.13,10.0,WNW,11.5,-,N/A,,Overcast,300,2013-01-25 18:15:00
1:35 PM,32.0,21.2,64,30.12,10.0,WNW,11.5,17.3,N/A,,Mostly Cloudy,300,2013-01-25 18:35:00
2:15 PM,32.0,19.4,60,30.11,10.0,NW,8.1,-,N/A,,Overcast,310,2013-01-25 19:15:00
2:35 PM,33.8,19.4,56,30.11,10.0,WNW,8.1,-,N/A,,Overcast,300,2013-01-25 19:35:00
2:55 PM,33.8,19.4,56,30.12,10.0,NW,5.8,-,N/A,,Scattered Clouds,310,2013-01-25 19:55:00
3:15 PM,33.8,19.4,56,30.11,10.0,North,9.2,-,N/A,,Partly Cloudy,350,2013-01-25 20:15:00
3:35 PM,33.8,19.4,56,30.12,10.0,NNW,5.8,-,N/A,,Mostly Cloudy,330,2013-01-25 20:35:00
3:55 PM,33.8,19.4,56,30.12,10.0,NW,5.8,-,N/A,,Overcast,320,2013-01-25 20:55:00
4:15 PM,32.0,19.4,60,30.13,10.0,North,3.5,-,N/A,,Overcast,350,2013-01-25 21:15:00
4:35 PM,33.8,19.4,56,30.13,10.0,WNW,6.9,-,N/A,,Overcast,290,2013-01-25 21:35:00
4:55 PM,33.8,19.4,56,30.13,10.0,West,4.6,-,N/A,,Overcast,270,2013-01-25 21:55:00
5:15 PM,30.2,19.4,64,30.13,10.0,WSW,6.9,-,N/A,,Mostly Cloudy,250,2013-01-25 22:15:00
5:35 PM,30.2,19.4,64,30.12,10.0,WSW,4.6,-,N/A,,Scattered Clouds,240,2013-01-25 22:35:00
5:55 PM,30.2,19.4,64,30.13,10.0,WSW,3.5,-,N/A,,Clear,240,2013-01-25 22:55:00
6:15 PM,30.2,19.4,64,30.14,10.0,WSW,3.5,-,N/A,,Clear,250,2013-01-25 23:15:00
6:35 PM,28.4,17.6,64,30.15,10.0,WSW,3.5,-,N/A,,Clear,240,2013-01-25 23:35:00
6:55 PM,28.4,17.6,64,30.15,10.0,SSW,3.5,-,N/A,,Clear,200,2013-01-25 23:55:00
7:15 PM,26.6,19.4,74,30.15,10.0,SSW,4.6,-,N/A,,Clear,200,2013-01-26 00:15:00
7:36 PM,28.4,17.6,64,30.16,10.0,SSW,5.8,-,N/A,,Clear,200,2013-01-26 00:36:00
7:55 PM,26.6,17.6,69,30.16,10.0,South,5.8,-,N/A,,Clear,190,2013-01-26 00:55:00
8:15 PM,26.6,17.6,69,30.16,10.0,South,5.8,-,N/A,,Clear,190,2013-01-26 01:15:00
8:35 PM,26.6,17.6,69,30.16,10.0,SSW,6.9,-,N/A,,Clear,200,2013-01-26 01:35:00
8:55 PM,26.6,17.6,69,30.16,10.0,South,6.9,-,N/A,,Clear,190,2013-01-26 01:55:00
9:15 PM,26.6,17.6,69,30.16,10.0,South,6.9,-,N/A,,Clear,190,2013-01-26 02:15:00
9:35 PM,26.6,17.6,69,30.16,10.0,South,5.8,-,N/A,,Clear,190,2013-01-26 02:35:00
9:55 PM,26.6,17.6,69,30.16,10.0,South,5.8,-,N/A,,Clear,190,2013-01-26 02:55:00
10:15 PM,26.6,17.6,69,30.17,10.0,South,5.8,-,N/A,,Clear,190,2013-01-26 03:15:00
10:35 PM,24.8,17.6,74,30.17,10.0,South,5.8,-,N/A,,Clear,180,2013-01-26 03:35:00
10:55 PM,24.8,17.6,74,30.17,10.0,South,8.1,-,N/A,,Clear,180,2013-01-26 03:55:00
11:15 PM,24.8,17.6,74,30.18,10.0,South,6.9,-,N/A,,Clear,180,2013-01-26 04:15:00
11:35 PM,24.8,17.6,74,30.19,10.0,South,6.9,-,N/A,,Clear,190,2013-01-26 04:35:00
11:55 PM,24.8,17.6,74,30.19,10.0,South,6.9,-,N/A,,Clear,180,2013-01-26 04:55:00